createdAt,value
2023-01-11T00:02:16.931Z,-13.35
2023-01-11T00:04:47.756Z,-13.36
2023-01-11T00:07:15.106Z,-13.34
2023-01-11T00:09:42.483Z,-13.35
2023-01-11T00:12:12.482Z,-13.35
2023-01-11T00:14:39.769Z,-13.35
2023-01-11T00:17:07.187Z,-13.35
2023-01-11T00:19:34.517Z,-13.33
2023-01-11T00:22:03.377Z,-13.35
2023-01-11T00:24:30.611Z,-13.38
2023-01-11T00:26:58.106Z,-13.38
2023-01-11T00:29:25.459Z,-13.37
2023-01-11T00:31:53.617Z,-13.36
2023-01-11T00:34:21.276Z,-13.38
2023-01-11T00:36:48.624Z,-13.33
2023-01-11T00:39:17.283Z,-13.28
2023-01-11T00:42:03.095Z,-13.28
2023-01-11T00:44:49.258Z,-13.25
2023-01-11T00:47:36.433Z,-13.19
2023-01-11T00:50:03.619Z,-13.13
2023-01-11T00:52:30.906Z,-13.11
2023-01-11T00:54:59.806Z,-13.11
2023-01-11T00:57:27.114Z,-13.07
2023-01-11T00:59:54.545Z,-13.06
2023-01-11T01:02:22.852Z,-13.05
2023-01-11T01:04:50.510Z,-13.06
2023-01-11T01:07:17.914Z,-13.06
2023-01-11T01:09:45.155Z,-13.02
2023-01-11T01:12:33.819Z,-13.00
2023-01-11T01:15:01.314Z,-13.07
2023-01-11T01:17:30.981Z,-12.99
2023-01-11T01:19:58.245Z,-13.04
2023-01-11T01:22:25.672Z,-13.05
2023-01-11T01:24:53.296Z,-13.06
2023-01-11T01:27:21.989Z,-13.08
2023-01-11T01:29:49.381Z,-13.07
2023-01-11T01:32:16.708Z,-13.04
2023-01-11T01:34:43.999Z,-13.03
2023-01-11T01:37:12.108Z,-13.05
2023-01-11T01:39:39.440Z,-13.10
2023-01-11T01:42:12.961Z,-13.05
2023-01-11T01:45:00.476Z,-13.02
2023-01-11T01:47:35.110Z,-13.03
2023-01-11T01:50:06.997Z,-13.13
2023-01-11T01:52:35.767Z,-13.05
2023-01-11T01:55:07.546Z,-13.09
2023-01-11T01:57:38.090Z,-13.15
2023-01-11T02:00:09.774Z,-13.11
2023-01-11T02:02:37.843Z,-13.16
2023-01-11T02:05:06.973Z,-13.07
2023-01-11T02:07:36.764Z,-13.10
2023-01-11T02:10:08.012Z,-13.13
2023-01-11T02:12:38.420Z,-13.25
2023-01-11T02:15:09.689Z,-13.15
2023-01-11T02:17:39.620Z,-13.11
2023-01-11T02:20:21.309Z,-13.10
2023-01-11T02:23:21.119Z,-13.11
2023-01-11T02:26:17.904Z,-13.08
2023-01-11T02:28:54.290Z,-13.08
2023-01-11T02:31:30.861Z,-13.14
2023-01-11T02:34:15.161Z,-13.18
2023-01-11T02:37:00.354Z,-13.22
2023-01-11T02:39:37.534Z,-13.21
2023-01-11T02:42:30.171Z,-13.26
2023-01-11T02:45:07.761Z,-13.28
2023-01-11T02:47:44.111Z,-13.20
2023-01-11T02:50:21.239Z,-13.20
2023-01-11T02:52:55.814Z,-13.15
2023-01-11T02:55:27.554Z,-13.18
2023-01-11T02:57:58.979Z,-13.13
2023-01-11T03:00:28.629Z,-13.11
2023-01-11T03:03:13.774Z,-13.12
2023-01-11T03:05:46.412Z,-13.17
2023-01-11T03:08:38.740Z,-13.13
2023-01-11T03:11:07.953Z,-13.12
2023-01-11T03:13:48.867Z,-13.16
2023-01-11T03:16:25.087Z,-13.28
2023-01-11T03:19:07.615Z,-13.17
2023-01-11T03:21:48.442Z,-13.15
2023-01-11T03:24:24.055Z,-13.14
2023-01-11T03:27:10.462Z,-13.09
2023-01-11T03:29:41.985Z,-13.09
2023-01-11T03:32:21.136Z,-13.11
2023-01-11T03:34:57.855Z,-13.19
2023-01-11T03:37:31.549Z,-13.22
2023-01-11T03:40:03.034Z,-13.23
2023-01-11T03:42:32.642Z,-13.20
2023-01-11T03:45:02.638Z,-13.22
2023-01-11T03:47:35.063Z,-13.25
2023-01-11T03:50:06.991Z,-13.15
2023-01-11T03:52:38.672Z,-13.11
2023-01-11T03:55:10.354Z,-13.13
2023-01-11T03:57:43.356Z,-13.10
2023-01-11T04:00:11.979Z,-13.11
2023-01-11T04:02:42.024Z,-13.10
2023-01-11T04:05:11.488Z,-13.22
2023-01-11T04:07:38.931Z,-13.09
2023-01-11T04:10:07.388Z,-13.09
2023-01-11T04:12:34.679Z,-13.06
2023-01-11T04:15:03.387Z,-13.00
2023-01-11T04:17:32.654Z,-12.98
2023-01-11T04:20:01.408Z,-13.00
2023-01-11T04:22:28.954Z,-12.99
2023-01-11T04:24:56.461Z,-13.06
2023-01-11T04:27:23.825Z,-13.05
2023-01-11T04:29:51.317Z,-13.01
2023-01-11T04:32:18.725Z,-13.01
2023-01-11T04:34:46.020Z,-13.04
2023-01-11T04:37:14.886Z,-13.02
2023-01-11T04:39:42.499Z,-12.98
2023-01-11T04:42:19.037Z,-12.95
2023-01-11T04:44:48.151Z,-12.95
2023-01-11T04:47:16.308Z,-13.01
2023-01-11T04:49:45.569Z,-13.01
2023-01-11T04:52:16.135Z,-12.98
2023-01-11T04:54:44.080Z,-12.99
2023-01-11T04:57:13.565Z,-13.02
2023-01-11T04:59:40.823Z,-12.99
2023-01-11T05:02:08.846Z,-12.97
2023-01-11T05:04:36.145Z,-12.95
2023-01-11T05:07:03.631Z,-12.95
2023-01-11T05:09:32.565Z,-12.94
2023-01-11T05:11:59.824Z,-12.96
2023-01-11T05:14:27.549Z,-13.00
2023-01-11T05:16:54.968Z,-12.97
2023-01-11T05:19:22.394Z,-12.94
2023-01-11T05:21:49.774Z,-12.95
2023-01-11T05:24:17.460Z,-12.96
2023-01-11T05:26:46.461Z,-12.92
2023-01-11T05:29:20.535Z,-12.98
2023-01-11T05:31:48.566Z,-12.89
2023-01-11T05:34:17.227Z,-12.94
2023-01-11T05:36:44.958Z,-12.88
2023-01-11T05:39:13.550Z,-12.88
2023-01-11T05:41:40.861Z,-12.87
2023-01-11T05:44:30.253Z,-12.99
2023-01-11T05:46:57.981Z,-12.80
2023-01-11T05:49:25.441Z,-12.82
2023-01-11T05:51:52.878Z,-12.82
2023-01-11T05:54:20.381Z,-12.77
2023-01-11T05:56:48.038Z,-12.78
2023-01-11T05:59:16.885Z,-12.75
2023-01-11T06:01:44.566Z,-12.76
2023-01-11T06:04:11.942Z,-12.68
2023-01-11T06:06:39.365Z,-12.66
2023-01-11T06:09:06.781Z,-12.68
2023-01-11T06:11:34.183Z,-12.68
2023-01-11T06:14:01.574Z,-12.62
2023-01-11T06:16:30.952Z,-12.62
2023-01-11T06:18:58.234Z,-12.63
2023-01-11T06:21:25.701Z,-12.56
2023-01-11T06:23:53.390Z,-12.58
2023-01-11T06:26:22.900Z,-12.58
2023-01-11T06:28:51.187Z,-12.46
2023-01-11T06:31:19.241Z,-12.45
2023-01-11T06:33:48.321Z,-12.42
2023-01-11T06:36:16.640Z,-12.40
2023-01-11T06:38:44.807Z,-12.36
2023-01-11T06:41:13.579Z,-12.39
2023-01-11T06:43:42.397Z,-12.43
2023-01-11T06:46:14.183Z,-12.40
2023-01-11T06:48:41.930Z,-12.37
2023-01-11T06:51:12.204Z,-12.35
2023-01-11T06:53:40.495Z,-12.37
2023-01-11T06:56:11.104Z,-12.39
2023-01-11T06:58:38.801Z,-12.37
2023-01-11T07:01:07.074Z,-12.34
2023-01-11T07:03:34.953Z,-12.28
2023-01-11T07:06:02.688Z,-12.20
2023-01-11T07:08:31.460Z,-12.23
2023-01-11T07:10:59.059Z,-12.22
2023-01-11T07:13:26.879Z,-12.22
2023-01-11T07:15:57.975Z,-12.20
2023-01-11T07:18:25.636Z,-12.11
2023-01-11T07:20:53.147Z,-12.07
2023-01-11T07:23:20.504Z,-12.00
2023-01-11T07:25:50.017Z,-11.97
2023-01-11T07:28:17.430Z,-11.98
2023-01-11T07:30:57.702Z,-11.95
2023-01-11T07:33:26.951Z,-11.96
2023-01-11T07:35:55.218Z,-11.92
2023-01-11T07:38:22.936Z,-11.88
2023-01-11T07:40:51.785Z,-11.90
2023-01-11T07:43:21.598Z,-11.94
2023-01-11T07:45:50.617Z,-11.89
2023-01-11T07:48:25.290Z,-11.83
2023-01-11T07:50:53.474Z,-11.84
2023-01-11T07:53:22.313Z,-11.79
2023-01-11T07:55:51.098Z,-11.86
2023-01-11T07:58:18.416Z,-11.85
2023-01-11T08:00:46.369Z,-11.83
2023-01-11T08:03:13.882Z,-11.73
2023-01-11T08:05:41.560Z,-11.76
2023-01-11T08:08:09.176Z,-11.80
2023-01-11T08:10:36.911Z,-11.67
2023-01-11T08:13:30.295Z,-11.67
2023-01-11T08:15:58.111Z,-11.71
2023-01-11T08:18:25.632Z,-11.71
2023-01-11T08:20:53.540Z,-11.65
2023-01-11T08:23:20.988Z,-11.68
2023-01-11T08:25:48.395Z,-11.69
2023-01-11T08:28:17.111Z,-11.65
2023-01-11T08:30:45.193Z,-11.67
2023-01-11T08:33:12.554Z,-11.67
2023-01-11T08:35:40.213Z,-11.61
2023-01-11T08:38:08.302Z,-11.54
2023-01-11T08:40:36.804Z,-11.54
2023-01-11T08:43:04.206Z,-11.54
2023-01-11T08:45:34.275Z,-11.52
2023-01-11T08:48:01.932Z,-11.47
2023-01-11T08:50:30.299Z,-11.50
2023-01-11T08:52:57.675Z,-11.42
2023-01-11T08:55:25.023Z,-11.44
2023-01-11T08:57:52.357Z,-11.38
2023-01-11T09:00:20.607Z,-11.24
2023-01-11T09:02:51.513Z,-11.25
2023-01-11T09:05:19.643Z,-11.22
2023-01-11T09:07:47.067Z,-11.16
2023-01-11T09:10:14.475Z,-11.12
2023-01-11T09:12:42.140Z,-11.13
2023-01-11T09:15:10.629Z,-11.13
2023-01-11T09:17:38.040Z,-11.11
2023-01-11T09:20:08.310Z,-10.98
2023-01-11T09:22:36.441Z,-11.05
2023-01-11T09:25:04.128Z,-11.01
2023-01-11T09:27:33.509Z,-10.95
2023-01-11T09:30:02.685Z,-11.07
2023-01-11T09:32:30.991Z,-11.03
2023-01-11T09:34:59.872Z,-11.02
2023-01-11T09:37:28.783Z,-11.01
2023-01-11T09:39:58.153Z,-11.00
2023-01-11T09:42:35.617Z,-11.03
2023-01-11T09:45:13.862Z,-11.05
2023-01-11T09:47:46.636Z,-11.00
2023-01-11T09:50:19.975Z,-11.07
2023-01-11T09:52:53.086Z,-11.01
2023-01-11T09:55:29.026Z,-11.10
2023-01-11T09:58:10.209Z,-10.98
2023-01-11T10:00:51.870Z,-10.94
2023-01-11T10:03:49.994Z,-10.89
2023-01-11T10:06:24.366Z,-10.91
2023-01-11T10:18:32.890Z,-11.19
2023-01-11T10:18:48.892Z,-10.91
2023-01-11T10:21:18.368Z,-10.86
2023-01-11T10:23:54.441Z,-11.00
2023-01-11T10:26:28.973Z,-10.94
2023-01-11T10:29:17.550Z,-10.77
2023-01-11T10:32:15.102Z,-10.83
2023-01-11T10:34:59.660Z,-10.71
2023-01-11T10:38:08.822Z,-10.76
2023-01-11T10:41:04.489Z,-10.77
2023-01-11T10:43:37.676Z,-10.80
2023-01-11T10:46:09.345Z,-10.82
2023-01-11T10:48:39.154Z,-10.85
2023-01-11T10:51:19.276Z,-10.86
2023-01-11T10:53:59.361Z,-10.83
2023-01-11T10:56:37.633Z,-10.85
2023-01-11T10:59:26.424Z,-10.78
2023-01-11T11:02:06.141Z,-10.80
2023-01-11T11:04:55.996Z,-10.92
2023-01-11T11:07:33.042Z,-10.76
2023-01-11T11:10:10.931Z,-10.75
2023-01-11T11:12:42.111Z,-10.75
2023-01-11T11:15:18.985Z,-10.77
2023-01-11T11:17:49.478Z,-10.74
2023-01-11T11:20:17.539Z,-10.76
2023-01-11T11:22:45.321Z,-10.69
2023-01-11T11:25:18.650Z,-10.79
2023-01-11T11:27:51.821Z,-10.91
2023-01-11T11:30:30.302Z,-10.76
2023-01-11T11:33:01.933Z,-10.78
2023-01-11T11:35:38.230Z,-10.71
2023-01-11T11:38:06.063Z,-10.75
2023-01-11T11:40:35.638Z,-10.79
2023-01-11T11:43:24.722Z,-10.71
2023-01-11T11:45:56.135Z,-10.64
2023-01-11T11:48:24.833Z,-10.67
2023-01-11T11:50:53.892Z,-10.66
2023-01-11T11:53:27.734Z,-10.59
2023-01-11T11:55:55.247Z,-10.55
2023-01-11T11:58:25.524Z,-10.53
2023-01-11T12:00:54.536Z,-10.53
2023-01-11T12:03:28.239Z,-10.48
2023-01-11T12:06:00.881Z,-10.53
2023-01-11T12:08:29.985Z,-10.58
2023-01-11T12:11:01.302Z,-10.52
2023-01-11T12:13:31.431Z,-10.56
2023-01-11T12:16:02.326Z,-10.57
2023-01-11T12:18:33.369Z,-10.57
2023-01-11T12:21:17.340Z,-10.56
2023-01-11T12:23:44.914Z,-10.42
2023-01-11T12:26:19.437Z,-10.38
2023-01-11T12:29:11.684Z,-10.40
2023-01-11T12:32:02.271Z,-10.37
2023-01-11T12:34:40.285Z,-10.30
2023-01-11T12:37:20.446Z,-10.26
2023-01-11T12:39:55.544Z,-10.29
2023-01-11T12:42:53.414Z,-10.43
2023-01-11T12:45:33.134Z,-10.32
2023-01-11T12:48:33.304Z,-10.30
2023-01-11T12:51:16.319Z,-10.28
2023-01-11T12:54:02.673Z,-10.26
2023-01-11T12:56:45.112Z,-10.31
2023-01-11T12:59:28.184Z,-10.31
2023-01-11T13:02:04.520Z,-10.28
2023-01-11T13:04:54.012Z,-10.33
2023-01-11T13:07:46.325Z,-10.27
2023-01-11T13:10:26.064Z,-10.34
2023-01-11T13:13:01.113Z,-10.36
2023-01-11T13:15:42.004Z,-10.42
2023-01-11T13:18:22.203Z,-10.40
2023-01-11T13:21:01.167Z,-10.39
2023-01-11T13:23:42.159Z,-10.59
2023-01-11T13:26:17.194Z,-10.41
2023-01-11T13:28:50.286Z,-10.31
2023-01-11T13:31:18.921Z,-10.34
2023-01-11T13:33:54.089Z,-10.34
2023-01-11T13:36:26.562Z,-10.36
2023-01-11T13:39:01.830Z,-10.33
2023-01-11T13:41:33.359Z,-10.42
2023-01-11T13:44:05.956Z,-10.32
2023-01-11T13:46:50.429Z,-10.39
2023-01-11T13:49:41.375Z,-10.33
2023-01-11T13:52:16.873Z,-10.43
2023-01-11T13:54:57.785Z,-10.35
2023-01-11T13:57:38.634Z,-10.46
2023-01-11T14:00:15.352Z,-10.35
2023-01-11T14:02:48.522Z,-10.39
2023-01-11T14:05:19.239Z,-10.45
2023-01-11T14:08:03.860Z,-10.38
2023-01-11T14:10:40.570Z,-10.51
2023-01-11T14:13:50.763Z,-10.35
2023-01-11T14:16:29.219Z,-10.43
2023-01-11T14:19:04.284Z,-10.44
2023-01-11T14:21:40.795Z,-10.42
2023-01-11T14:24:11.557Z,-10.49
2023-01-11T14:27:08.755Z,-10.45
2023-01-11T14:29:59.184Z,-10.54
2023-01-11T14:32:59.034Z,-10.51
2023-01-11T14:35:57.551Z,-10.56
2023-01-11T14:38:51.051Z,-10.51
2023-01-11T14:41:46.279Z,-10.52
2023-01-11T14:44:39.069Z,-10.59
2023-01-11T14:47:21.987Z,-10.68
2023-01-11T14:50:05.180Z,-10.60
2023-01-11T14:52:40.797Z,-10.59
2023-01-11T14:55:16.707Z,-10.73
2023-01-11T14:57:59.618Z,-10.75
2023-01-11T15:01:15.024Z,-10.71
2023-01-11T15:03:55.034Z,-10.69
2023-01-11T15:06:23.050Z,-10.71
2023-01-11T15:08:53.668Z,-10.84
2023-01-11T15:11:25.387Z,-10.86
2023-01-11T15:13:57.453Z,-10.90
2023-01-11T15:16:46.425Z,-10.89
2023-01-11T15:19:26.104Z,-10.81
2023-01-11T15:21:55.997Z,-10.86
2023-01-11T15:24:26.422Z,-10.89
2023-01-11T15:26:55.119Z,-10.87
2023-01-11T15:29:29.605Z,-11.09
2023-01-11T15:32:15.361Z,-10.85
2023-01-11T15:34:46.104Z,-10.90
2023-01-11T15:37:32.869Z,-11.02
2023-01-11T15:40:06.066Z,-10.90
2023-01-11T15:42:57.268Z,-10.99
2023-01-11T15:46:20.167Z,-10.87
2023-01-11T15:49:04.107Z,-10.87
2023-01-11T15:51:56.867Z,-11.07
2023-01-11T15:54:45.608Z,-10.86
2023-01-11T15:57:54.669Z,-10.91
2023-01-11T16:00:45.358Z,-10.73
2023-01-11T16:03:51.944Z,-10.70
2023-01-11T16:06:32.814Z,-10.69
2023-01-11T16:09:24.981Z,-10.71
2023-01-11T16:12:07.491Z,-10.65
2023-01-11T16:14:49.895Z,-10.59
2023-01-11T16:17:21.391Z,-10.56
2023-01-11T16:19:53.387Z,-10.59
2023-01-11T16:22:25.363Z,-10.45
2023-01-11T16:24:57.589Z,-10.38
2023-01-11T16:27:30.079Z,-10.36
2023-01-11T16:29:57.498Z,-10.33
2023-01-11T16:32:32.844Z,-10.29
2023-01-11T16:35:02.703Z,-10.31
2023-01-11T16:37:36.863Z,-10.34
2023-01-11T16:40:14.388Z,-10.21
2023-01-11T16:42:47.292Z,-10.21
2023-01-11T16:45:18.780Z,-10.17
2023-01-11T16:48:03.347Z,-10.19
2023-01-11T16:50:31.437Z,-10.09
2023-01-11T16:53:00.363Z,-10.15
2023-01-11T16:55:34.049Z,-10.23
2023-01-11T16:58:04.685Z,-10.16
2023-01-11T17:00:38.209Z,-10.16
2023-01-11T17:03:18.887Z,-10.17
2023-01-11T17:06:13.718Z,-10.06
2023-01-11T17:08:43.261Z,-10.05
2023-01-11T17:11:22.944Z,-10.06
2023-01-11T17:14:28.124Z,-10.03
2023-01-11T17:17:00.341Z,-10.02
2023-01-11T17:19:31.058Z,-10.00
2023-01-11T17:22:03.993Z,-9.94
2023-01-11T17:24:36.449Z,-9.98
2023-01-11T17:27:07.654Z,-9.92
2023-01-11T17:29:39.242Z,-10.06
2023-01-11T17:32:13.608Z,-9.85
2023-01-11T17:34:42.968Z,-9.90
2023-01-11T17:37:16.300Z,-9.86
2023-01-11T17:39:48.921Z,-9.99
2023-01-11T17:42:36.592Z,-9.83
2023-01-11T17:45:18.547Z,-9.75
2023-01-11T17:47:48.360Z,-9.74
2023-01-11T17:50:26.575Z,-9.72
2023-01-11T17:53:03.144Z,-9.77
2023-01-11T17:55:30.662Z,-9.74
2023-01-11T17:58:20.048Z,-9.85
2023-01-11T18:01:10.480Z,-9.74
2023-01-11T18:03:42.154Z,-9.75
2023-01-11T18:06:12.819Z,-9.72
2023-01-11T18:08:45.987Z,-9.75
2023-01-11T18:11:27.921Z,-9.72
2023-01-11T18:13:59.279Z,-9.81
2023-01-11T18:16:27.838Z,-9.61
2023-01-11T18:18:55.891Z,-9.62
2023-01-11T18:21:51.396Z,-9.67
2023-01-11T18:24:28.759Z,-9.69
2023-01-11T18:27:27.903Z,-9.71
2023-01-11T18:29:58.058Z,-9.70
2023-01-11T18:32:26.993Z,-9.67
2023-01-11T18:34:54.920Z,-9.77
2023-01-11T18:37:22.503Z,-9.73
2023-01-11T18:39:51.802Z,-9.61
2023-01-11T18:42:23.039Z,-9.67
2023-01-11T18:44:51.388Z,-9.68
2023-01-11T18:47:25.455Z,-9.72
2023-01-11T18:49:58.990Z,-9.67
2023-01-11T18:52:27.832Z,-9.66
2023-01-11T18:54:56.097Z,-9.64
2023-01-11T18:57:28.057Z,-9.63
2023-01-11T18:59:55.973Z,-9.54
2023-01-11T19:02:28.011Z,-9.53
2023-01-11T19:04:57.144Z,-10.00
2023-01-11T19:07:25.402Z,-9.56
2023-01-11T19:09:55.014Z,-9.53
2023-01-11T19:12:23.154Z,-9.48
2023-01-11T19:14:50.854Z,-9.50
2023-01-11T19:17:18.207Z,-9.51
2023-01-11T19:19:47.120Z,-9.58
2023-01-11T19:22:14.470Z,-9.61
2023-01-11T19:24:42.069Z,-9.65
2023-01-11T19:27:09.627Z,-9.55
2023-01-11T19:29:37.308Z,-9.62
2023-01-11T19:32:05.241Z,-9.63
2023-01-11T19:34:33.978Z,-9.67
2023-01-11T19:37:03.000Z,-9.68
2023-01-11T19:39:30.233Z,-9.67
2023-01-11T19:42:00.002Z,-9.65
2023-01-11T19:44:31.389Z,-9.68
2023-01-11T19:47:10.375Z,-9.56
2023-01-11T19:49:41.970Z,-9.66
2023-01-11T19:52:13.609Z,-9.62
2023-01-11T19:54:42.365Z,-9.66
2023-01-11T19:57:10.831Z,-9.64
2023-01-11T19:59:40.572Z,-9.63
2023-01-11T20:02:08.301Z,-9.57
2023-01-11T20:04:35.807Z,-9.59
2023-01-11T20:07:05.569Z,-9.67
2023-01-11T20:09:37.628Z,-9.68
2023-01-11T20:12:05.702Z,-9.69
2023-01-11T20:14:36.487Z,-9.57
2023-01-11T20:17:04.166Z,-9.58
2023-01-11T20:19:31.723Z,-9.53
2023-01-11T20:21:59.019Z,-9.55
2023-01-11T20:24:29.890Z,-9.55
2023-01-11T20:27:00.783Z,-9.85
2023-01-11T20:29:28.203Z,-9.62
2023-01-11T20:31:56.785Z,-9.52
2023-01-11T20:34:29.215Z,-9.59
2023-01-11T20:36:56.503Z,-9.65
2023-01-11T20:39:25.386Z,-9.68
2023-01-11T20:41:54.051Z,-9.67
2023-01-11T20:44:25.110Z,-9.60
2023-01-11T20:46:53.738Z,-9.62
2023-01-11T20:49:23.051Z,-9.65
2023-01-11T20:51:50.459Z,-9.69
2023-01-11T20:54:19.091Z,-9.65
2023-01-11T20:56:47.098Z,-9.69
2023-01-11T20:59:20.318Z,-9.70
2023-01-11T21:01:49.485Z,-9.63
2023-01-11T21:04:17.970Z,-9.67
2023-01-11T21:06:48.121Z,-9.63
2023-01-11T21:09:17.826Z,-9.75
2023-01-11T21:11:52.644Z,-9.62
2023-01-11T21:14:20.449Z,-9.64
2023-01-11T21:16:49.523Z,-9.71
2023-01-11T21:19:17.280Z,-9.60
2023-01-11T21:21:44.810Z,-9.59
2023-01-11T21:24:13.831Z,-9.59
2023-01-11T21:26:42.670Z,-9.56
2023-01-11T21:29:11.807Z,-9.57
2023-01-11T21:31:40.352Z,-9.54
2023-01-11T21:34:11.024Z,-9.55
2023-01-11T21:36:38.823Z,-9.52
2023-01-11T21:39:06.343Z,-9.42
2023-01-11T21:41:52.675Z,-9.45
2023-01-11T21:44:21.706Z,-9.44
2023-01-11T21:46:49.625Z,-9.45
2023-01-11T21:49:18.406Z,-9.42
2023-01-11T21:51:45.903Z,-9.33
2023-01-11T21:54:15.225Z,-9.36
2023-01-11T21:56:42.634Z,-9.31
2023-01-11T21:59:10.646Z,-9.32
2023-01-11T22:01:38.861Z,-9.28
2023-01-11T22:04:06.650Z,-9.29
2023-01-11T22:06:37.545Z,-9.23
2023-01-11T22:09:06.044Z,-9.21
2023-01-11T22:11:33.567Z,-9.22
2023-01-11T22:14:02.625Z,-9.18
2023-01-11T22:16:31.456Z,-9.21
2023-01-11T22:19:00.315Z,-9.24
2023-01-11T22:21:28.121Z,-9.23
2023-01-11T22:23:59.276Z,-9.35
2023-01-11T22:26:28.066Z,-9.38
2023-01-11T22:29:15.392Z,-9.13
2023-01-11T22:31:46.741Z,-9.10
2023-01-11T22:34:15.104Z,-9.12
2023-01-11T22:36:43.447Z,-9.11
2023-01-11T22:39:13.740Z,-9.14
2023-01-11T22:41:41.105Z,-9.13
2023-01-11T22:44:09.356Z,-9.02
2023-01-11T22:46:36.713Z,-9.17
2023-01-11T22:49:06.287Z,-9.22
2023-01-11T22:51:34.716Z,-9.05
2023-01-11T22:54:02.547Z,-9.06
2023-01-11T22:56:31.957Z,-9.05
2023-01-11T22:59:06.282Z,-9.04
2023-01-11T23:01:35.419Z,-9.01
2023-01-11T23:04:03.512Z,-9.02
2023-01-11T23:06:40.516Z,-9.10
2023-01-11T23:09:12.354Z,-9.18
2023-01-11T23:12:01.233Z,-8.92
2023-01-11T23:14:33.320Z,-9.00
2023-01-11T23:17:06.935Z,-9.03
2023-01-11T23:19:35.398Z,-9.03
2023-01-11T23:22:03.108Z,-8.95
2023-01-11T23:24:31.205Z,-9.02
2023-01-11T23:26:59.993Z,-9.03
2023-01-11T23:29:27.497Z,-9.14
2023-01-11T23:31:55.081Z,-9.09
2023-01-11T23:34:22.349Z,-9.00
2023-01-11T23:36:49.917Z,-9.03
2023-01-11T23:39:18.923Z,-9.02
2023-01-11T23:42:04.815Z,-9.02
2023-01-11T23:44:33.823Z,-9.04
2023-01-11T23:47:19.521Z,-9.04
2023-01-11T23:49:46.861Z,-9.02
2023-01-11T23:52:14.463Z,-9.01
2023-01-11T23:54:41.830Z,-9.00
2023-01-11T23:57:12.504Z,-9.02
2023-01-11T23:59:42.146Z,-8.97
